sensor_id;sensor_type;location;lat;lon;timestamp;P1;durP1;ratioP1;P2;durP2;ratioP2
75494;SDS011;64072;51.466;7.260;2022-10-26T00:01:28;4.82;;;2.00;;
75494;SDS011;64072;51.466;7.260;2022-10-26T00:03:54;4.93;;;2.03;;
75494;SDS011;64072;51.466;7.260;2022-10-26T00:06:21;4.28;;;1.90;;
75494;SDS011;64072;51.466;7.260;2022-10-26T00:08:55;4.05;;;1.90;;
75494;SDS011;64072;51.466;7.260;2022-10-26T00:11:21;4.65;;;2.00;;
75494;SDS011;64072;51.466;7.260;2022-10-26T00:13:47;4.47;;;1.92;;
75494;SDS011;64072;51.466;7.260;2022-10-26T00:16:14;4.90;;;1.98;;
75494;SDS011;64072;51.466;7.260;2022-10-26T00:18:42;5.30;;;2.20;;
75494;SDS011;64072;51.466;7.260;2022-10-26T00:21:08;4.60;;;2.00;;
75494;SDS011;64072;51.466;7.260;2022-10-26T00:23:35;4.50;;;1.77;;
75494;SDS011;64072;51.466;7.260;2022-10-26T00:26:00;4.72;;;2.00;;
75494;SDS011;64072;51.466;7.260;2022-10-26T00:28:26;4.07;;;1.80;;
75494;SDS011;64072;51.466;7.260;2022-10-26T00:30:52;5.50;;;2.10;;
75494;SDS011;64072;51.466;7.260;2022-10-26T00:33:18;4.97;;;2.03;;
75494;SDS011;64072;51.466;7.260;2022-10-26T00:35:46;5.10;;;2.08;;
75494;SDS011;64072;51.466;7.260;2022-10-26T00:38:13;4.78;;;2.00;;
75494;SDS011;64072;51.466;7.260;2022-10-26T00:40:39;4.82;;;2.00;;
75494;SDS011;64072;51.466;7.260;2022-10-26T00:43:08;5.00;;;2.00;;
75494;SDS011;64072;51.466;7.260;2022-10-26T00:45:57;4.68;;;2.00;;
75494;SDS011;64072;51.466;7.260;2022-10-26T00:48:25;5.22;;;2.08;;
75494;SDS011;64072;51.466;7.260;2022-10-26T00:51:05;4.95;;;2.25;;
75494;SDS011;64072;51.466;7.260;2022-10-26T00:53:35;4.72;;;2.17;;
75494;SDS011;64072;51.466;7.260;2022-10-26T00:56:02;4.30;;;1.88;;
75494;SDS011;64072;51.466;7.260;2022-10-26T00:58:28;5.00;;;2.00;;
75494;SDS011;64072;51.466;7.260;2022-10-26T01:00:54;4.82;;;2.10;;
75494;SDS011;64072;51.466;7.260;2022-10-26T01:03:20;4.95;;;2.00;;
75494;SDS011;64072;51.466;7.260;2022-10-26T01:05:49;4.60;;;2.00;;
75494;SDS011;64072;51.466;7.260;2022-10-26T01:08:16;4.35;;;2.10;;
75494;SDS011;64072;51.466;7.260;2022-10-26T01:10:42;4.50;;;1.73;;
75494;SDS011;64072;51.466;7.260;2022-10-26T01:13:08;4.75;;;2.13;;
75494;SDS011;64072;51.466;7.260;2022-10-26T01:16:01;4.55;;;2.13;;
75494;SDS011;64072;51.466;7.260;2022-10-26T01:18:37;5.43;;;2.40;;
75494;SDS011;64072;51.466;7.260;2022-10-26T01:27:23;4.80;;;2.10;;
75494;SDS011;64072;51.466;7.260;2022-10-26T01:32:45;4.68;;;1.98;;
75494;SDS011;64072;51.466;7.260;2022-10-26T01:40:52;4.55;;;2.03;;
75494;SDS011;64072;51.466;7.260;2022-10-26T01:43:23;4.25;;;1.90;;
75494;SDS011;64072;51.466;7.260;2022-10-26T01:45:52;4.93;;;2.10;;
75494;SDS011;64072;51.466;7.260;2022-10-26T01:48:19;4.55;;;2.20;;
75494;SDS011;64072;51.466;7.260;2022-10-26T01:50:49;5.07;;;2.20;;
75494;SDS011;64072;51.466;7.260;2022-10-26T01:53:17;5.35;;;2.33;;
75494;SDS011;64072;51.466;7.260;2022-10-26T01:55:50;4.70;;;2.08;;
75494;SDS011;64072;51.466;7.260;2022-10-26T01:58:28;5.20;;;2.50;;
75494;SDS011;64072;51.466;7.260;2022-10-26T02:01:37;5.32;;;2.10;;
75494;SDS011;64072;51.466;7.260;2022-10-26T02:07:03;4.65;;;2.30;;
75494;SDS011;64072;51.466;7.260;2022-10-26T02:12:43;4.60;;;2.00;;
75494;SDS011;64072;51.466;7.260;2022-10-26T02:15:21;6.53;;;2.10;;
75494;SDS011;64072;51.466;7.260;2022-10-26T02:18:29;5.07;;;2.15;;
75494;SDS011;64072;51.466;7.260;2022-10-26T02:21:02;5.38;;;2.35;;
75494;SDS011;64072;51.466;7.260;2022-10-26T02:23:31;4.78;;;2.20;;
75494;SDS011;64072;51.466;7.260;2022-10-26T02:26:00;4.88;;;2.17;;
75494;SDS011;64072;51.466;7.260;2022-10-26T02:28:30;5.05;;;1.90;;
75494;SDS011;64072;51.466;7.260;2022-10-26T02:30:58;5.07;;;2.15;;
75494;SDS011;64072;51.466;7.260;2022-10-26T02:33:27;5.53;;;2.30;;
75494;SDS011;64072;51.466;7.260;2022-10-26T02:35:55;4.75;;;2.00;;
75494;SDS011;64072;51.466;7.260;2022-10-26T02:38:24;5.50;;;2.58;;
75494;SDS011;64072;51.466;7.260;2022-10-26T02:40:53;4.88;;;1.90;;
75494;SDS011;64072;51.466;7.260;2022-10-26T02:43:20;5.15;;;2.35;;
75494;SDS011;64072;51.466;7.260;2022-10-26T02:45:53;4.93;;;2.30;;
75494;SDS011;64072;51.466;7.260;2022-10-26T02:48:37;5.18;;;2.20;;
75494;SDS011;64072;51.466;7.260;2022-10-26T02:51:07;4.28;;;1.90;;
75494;SDS011;64072;51.466;7.260;2022-10-26T02:56:12;5.18;;;2.15;;
75494;SDS011;64072;51.466;7.260;2022-10-26T02:58:42;4.68;;;2.03;;
75494;SDS011;64072;51.466;7.260;2022-10-26T03:01:12;4.88;;;2.20;;
75494;SDS011;64072;51.466;7.260;2022-10-26T03:03:38;4.75;;;2.20;;
75494;SDS011;64072;51.466;7.260;2022-10-26T03:06:04;5.47;;;2.10;;
75494;SDS011;64072;51.466;7.260;2022-10-26T03:08:29;5.13;;;2.20;;
75494;SDS011;64072;51.466;7.260;2022-10-26T03:10:55;4.95;;;2.10;;
75494;SDS011;64072;51.466;7.260;2022-10-26T03:13:22;4.60;;;2.00;;
75494;SDS011;64072;51.466;7.260;2022-10-26T03:15:47;4.43;;;1.95;;
75494;SDS011;64072;51.466;7.260;2022-10-26T03:18:13;5.10;;;2.00;;
75494;SDS011;64072;51.466;7.260;2022-10-26T03:20:39;4.93;;;2.00;;
75494;SDS011;64072;51.466;7.260;2022-10-26T03:23:07;4.97;;;2.08;;
75494;SDS011;64072;51.466;7.260;2022-10-26T03:25:33;4.65;;;2.00;;
75494;SDS011;64072;51.466;7.260;2022-10-26T03:27:59;5.07;;;2.20;;
75494;SDS011;64072;51.466;7.260;2022-10-26T03:30:26;5.05;;;2.00;;
75494;SDS011;64072;51.466;7.260;2022-10-26T03:32:52;4.93;;;2.25;;
75494;SDS011;64072;51.466;7.260;2022-10-26T03:35:18;4.43;;;2.10;;
75494;SDS011;64072;51.466;7.260;2022-10-26T03:37:44;4.72;;;1.90;;
75494;SDS011;64072;51.466;7.260;2022-10-26T03:40:10;4.82;;;2.10;;
75494;SDS011;64072;51.466;7.260;2022-10-26T03:42:36;4.30;;;1.80;;
75494;SDS011;64072;51.466;7.260;2022-10-26T03:45:02;4.93;;;2.00;;
75494;SDS011;64072;51.466;7.260;2022-10-26T03:47:28;5.05;;;2.00;;
75494;SDS011;64072;51.466;7.260;2022-10-26T03:49:54;5.05;;;2.20;;
75494;SDS011;64072;51.466;7.260;2022-10-26T03:52:19;4.75;;;2.00;;
75494;SDS011;64072;51.466;7.260;2022-10-26T03:54:45;4.70;;;2.00;;
75494;SDS011;64072;51.466;7.260;2022-10-26T03:57:10;4.78;;;2.08;;
75494;SDS011;64072;51.466;7.260;2022-10-26T03:59:36;4.75;;;2.00;;
75494;SDS011;64072;51.466;7.260;2022-10-26T04:02:02;4.40;;;2.00;;
75494;SDS011;64072;51.466;7.260;2022-10-26T04:04:27;4.75;;;2.20;;
75494;SDS011;64072;51.466;7.260;2022-10-26T04:06:53;4.80;;;2.00;;
75494;SDS011;64072;51.466;7.260;2022-10-26T04:09:18;5.05;;;2.10;;
75494;SDS011;64072;51.466;7.260;2022-10-26T04:11:44;4.97;;;1.90;;
75494;SDS011;64072;51.466;7.260;2022-10-26T04:14:09;4.45;;;1.88;;
75494;SDS011;64072;51.466;7.260;2022-10-26T04:16:35;4.90;;;1.90;;
75494;SDS011;64072;51.466;7.260;2022-10-26T04:19:01;4.82;;;2.05;;
75494;SDS011;64072;51.466;7.260;2022-10-26T04:21:26;4.60;;;2.00;;
75494;SDS011;64072;51.466;7.260;2022-10-26T04:23:52;4.55;;;2.00;;
75494;SDS011;64072;51.466;7.260;2022-10-26T04:26:17;5.22;;;2.00;;
75494;SDS011;64072;51.466;7.260;2022-10-26T04:28:43;4.88;;;1.90;;
75494;SDS011;64072;51.466;7.260;2022-10-26T04:31:08;4.85;;;2.10;;
75494;SDS011;64072;51.466;7.260;2022-10-26T04:33:34;4.75;;;1.95;;
75494;SDS011;64072;51.466;7.260;2022-10-26T04:35:59;4.32;;;2.10;;
75494;SDS011;64072;51.466;7.260;2022-10-26T04:38:25;5.50;;;2.10;;
75494;SDS011;64072;51.466;7.260;2022-10-26T04:40:51;4.78;;;2.00;;
75494;SDS011;64072;51.466;7.260;2022-10-26T04:43:16;5.05;;;1.98;;
75494;SDS011;64072;51.466;7.260;2022-10-26T04:45:42;5.32;;;2.00;;
75494;SDS011;64072;51.466;7.260;2022-10-26T04:48:11;4.72;;;2.10;;
75494;SDS011;64072;51.466;7.260;2022-10-26T04:50:37;5.32;;;2.10;;
75494;SDS011;64072;51.466;7.260;2022-10-26T04:53:04;5.68;;;2.30;;
75494;SDS011;64072;51.466;7.260;2022-10-26T04:55:30;4.97;;;2.40;;
75494;SDS011;64072;51.466;7.260;2022-10-26T04:57:56;5.97;;;2.13;;
75494;SDS011;64072;51.466;7.260;2022-10-26T05:00:21;5.10;;;2.20;;
75494;SDS011;64072;51.466;7.260;2022-10-26T05:02:47;5.18;;;2.47;;
75494;SDS011;64072;51.466;7.260;2022-10-26T05:05:13;5.18;;;1.95;;
75494;SDS011;64072;51.466;7.260;2022-10-26T05:07:38;4.63;;;1.88;;
75494;SDS011;64072;51.466;7.260;2022-10-26T05:10:04;4.03;;;1.80;;
75494;SDS011;64072;51.466;7.260;2022-10-26T05:12:30;5.15;;;1.80;;
75494;SDS011;64072;51.466;7.260;2022-10-26T05:14:56;4.05;;;1.80;;
75494;SDS011;64072;51.466;7.260;2022-10-26T05:17:23;4.47;;;1.92;;
75494;SDS011;64072;51.466;7.260;2022-10-26T05:19:50;4.50;;;1.90;;
75494;SDS011;64072;51.466;7.260;2022-10-26T05:22:20;4.72;;;1.88;;
75494;SDS011;64072;51.466;7.260;2022-10-26T05:24:46;4.90;;;1.67;;
75494;SDS011;64072;51.466;7.260;2022-10-26T05:27:11;4.40;;;1.88;;
75494;SDS011;64072;51.466;7.260;2022-10-26T05:29:37;5.90;;;1.60;;
75494;SDS011;64072;51.466;7.260;2022-10-26T05:32:02;4.80;;;1.80;;
75494;SDS011;64072;51.466;7.260;2022-10-26T05:34:28;5.15;;;1.88;;
75494;SDS011;64072;51.466;7.260;2022-10-26T05:36:53;4.05;;;1.70;;
75494;SDS011;64072;51.466;7.260;2022-10-26T05:39:19;4.35;;;1.50;;
75494;SDS011;64072;51.466;7.260;2022-10-26T05:41:45;4.03;;;1.60;;
75494;SDS011;64072;51.466;7.260;2022-10-26T05:44:11;4.30;;;1.50;;
75494;SDS011;64072;51.466;7.260;2022-10-26T05:46:36;3.67;;;1.33;;
75494;SDS011;64072;51.466;7.260;2022-10-26T05:49:02;4.10;;;1.50;;
75494;SDS011;64072;51.466;7.260;2022-10-26T05:51:27;3.33;;;1.35;;
75494;SDS011;64072;51.466;7.260;2022-10-26T05:53:53;3.85;;;1.50;;
75494;SDS011;64072;51.466;7.260;2022-10-26T05:56:19;3.97;;;1.70;;
75494;SDS011;64072;51.466;7.260;2022-10-26T05:58:54;4.60;;;1.70;;
75494;SDS011;64072;51.466;7.260;2022-10-26T06:07:02;3.47;;;1.52;;
75494;SDS011;64072;51.466;7.260;2022-10-26T06:09:33;3.42;;;1.40;;
75494;SDS011;64072;51.466;7.260;2022-10-26T06:11:59;3.83;;;1.40;;
75494;SDS011;64072;51.466;7.260;2022-10-26T06:14:25;3.55;;;1.35;;
75494;SDS011;64072;51.466;7.260;2022-10-26T06:19:41;3.80;;;1.45;;
75494;SDS011;64072;51.466;7.260;2022-10-26T06:27:41;2.97;;;1.23;;
75494;SDS011;64072;51.466;7.260;2022-10-26T06:30:20;4.00;;;1.50;;
75494;SDS011;64072;51.466;7.260;2022-10-26T06:32:47;3.83;;;1.48;;
75494;SDS011;64072;51.466;7.260;2022-10-26T06:35:32;4.03;;;1.20;;
75494;SDS011;64072;51.466;7.260;2022-10-26T06:38:02;3.97;;;1.40;;
75494;SDS011;64072;51.466;7.260;2022-10-26T06:40:32;4.10;;;1.35;;
75494;SDS011;64072;51.466;7.260;2022-10-26T06:43:00;2.85;;;1.20;;
75494;SDS011;64072;51.466;7.260;2022-10-26T06:45:26;4.30;;;1.30;;
75494;SDS011;64072;51.466;7.260;2022-10-26T06:48:03;3.05;;;1.30;;
75494;SDS011;64072;51.466;7.260;2022-10-26T06:50:45;3.10;;;1.20;;
75494;SDS011;64072;51.466;7.260;2022-10-26T06:53:20;3.05;;;1.10;;
75494;SDS011;64072;51.466;7.260;2022-10-26T06:56:06;3.13;;;1.27;;
75494;SDS011;64072;51.466;7.260;2022-10-26T06:58:35;3.30;;;1.23;;
75494;SDS011;64072;51.466;7.260;2022-10-26T07:01:01;3.42;;;1.30;;
75494;SDS011;64072;51.466;7.260;2022-10-26T07:03:27;3.63;;;1.27;;
75494;SDS011;64072;51.466;7.260;2022-10-26T07:05:52;2.97;;;1.30;;
75494;SDS011;64072;51.466;7.260;2022-10-26T07:08:18;2.60;;;1.00;;
75494;SDS011;64072;51.466;7.260;2022-10-26T07:10:45;3.90;;;1.30;;
75494;SDS011;64072;51.466;7.260;2022-10-26T07:13:11;3.17;;;1.20;;
75494;SDS011;64072;51.466;7.260;2022-10-26T07:15:37;3.65;;;1.50;;
75494;SDS011;64072;51.466;7.260;2022-10-26T07:18:03;3.60;;;1.30;;
75494;SDS011;64072;51.466;7.260;2022-10-26T07:20:30;3.72;;;1.20;;
75494;SDS011;64072;51.466;7.260;2022-10-26T07:22:57;3.30;;;1.33;;
75494;SDS011;64072;51.466;7.260;2022-10-26T07:25:23;3.75;;;1.40;;
75494;SDS011;64072;51.466;7.260;2022-10-26T07:27:50;3.13;;;1.20;;
75494;SDS011;64072;51.466;7.260;2022-10-26T07:30:16;3.13;;;1.10;;
75494;SDS011;64072;51.466;7.260;2022-10-26T07:32:42;2.90;;;1.20;;
75494;SDS011;64072;51.466;7.260;2022-10-26T07:35:07;3.30;;;1.30;;
75494;SDS011;64072;51.466;7.260;2022-10-26T07:37:33;2.78;;;1.17;;
75494;SDS011;64072;51.466;7.260;2022-10-26T07:39:59;2.55;;;1.10;;
75494;SDS011;64072;51.466;7.260;2022-10-26T07:42:26;2.75;;;1.10;;
75494;SDS011;64072;51.466;7.260;2022-10-26T07:44:51;3.25;;;1.20;;
75494;SDS011;64072;51.466;7.260;2022-10-26T07:47:17;2.53;;;1.20;;
75494;SDS011;64072;51.466;7.260;2022-10-26T07:49:42;2.70;;;1.15;;
75494;SDS011;64072;51.466;7.260;2022-10-26T07:52:08;3.05;;;1.10;;
75494;SDS011;64072;51.466;7.260;2022-10-26T07:54:34;2.17;;;1.00;;
75494;SDS011;64072;51.466;7.260;2022-10-26T07:56:59;2.90;;;1.20;;
75494;SDS011;64072;51.466;7.260;2022-10-26T07:59:25;3.58;;;1.20;;
75494;SDS011;64072;51.466;7.260;2022-10-26T08:01:51;2.58;;;1.23;;
75494;SDS011;64072;51.466;7.260;2022-10-26T08:04:16;2.78;;;1.20;;
75494;SDS011;64072;51.466;7.260;2022-10-26T08:06:42;3.38;;;1.13;;
75494;SDS011;64072;51.466;7.260;2022-10-26T08:09:07;3.25;;;1.00;;
75494;SDS011;64072;51.466;7.260;2022-10-26T08:11:33;2.28;;;1.10;;
75494;SDS011;64072;51.466;7.260;2022-10-26T08:14:01;2.50;;;1.10;;
75494;SDS011;64072;51.466;7.260;2022-10-26T08:16:27;3.45;;;1.30;;
75494;SDS011;64072;51.466;7.260;2022-10-26T08:18:53;2.53;;;1.00;;
75494;SDS011;64072;51.466;7.260;2022-10-26T08:21:19;2.80;;;1.10;;
75494;SDS011;64072;51.466;7.260;2022-10-26T08:23:44;2.60;;;1.10;;
75494;SDS011;64072;51.466;7.260;2022-10-26T08:26:10;3.20;;;1.23;;
75494;SDS011;64072;51.466;7.260;2022-10-26T08:28:36;3.28;;;1.10;;
75494;SDS011;64072;51.466;7.260;2022-10-26T08:31:02;3.00;;;1.30;;
75494;SDS011;64072;51.466;7.260;2022-10-26T08:33:28;2.78;;;1.30;;
75494;SDS011;64072;51.466;7.260;2022-10-26T08:35:55;2.88;;;1.15;;
75494;SDS011;64072;51.466;7.260;2022-10-26T08:38:21;2.25;;;1.10;;
75494;SDS011;64072;51.466;7.260;2022-10-26T08:40:47;2.65;;;1.10;;
75494;SDS011;64072;51.466;7.260;2022-10-26T08:43:29;2.58;;;1.10;;
75494;SDS011;64072;51.466;7.260;2022-10-26T08:46:18;3.15;;;1.20;;
75494;SDS011;64072;51.466;7.260;2022-10-26T08:48:49;2.47;;;1.17;;
75494;SDS011;64072;51.466;7.260;2022-10-26T08:51:24;2.57;;;1.17;;
75494;SDS011;64072;51.466;7.260;2022-10-26T08:54:02;2.55;;;1.17;;
75494;SDS011;64072;51.466;7.260;2022-10-26T08:56:41;4.30;;;1.42;;
75494;SDS011;64072;51.466;7.260;2022-10-26T09:01:38;2.75;;;1.10;;
75494;SDS011;64072;51.466;7.260;2022-10-26T09:04:05;2.83;;;1.10;;
75494;SDS011;64072;51.466;7.260;2022-10-26T09:06:47;3.83;;;1.20;;
75494;SDS011;64072;51.466;7.260;2022-10-26T09:14:44;2.00;;;1.02;;
75494;SDS011;64072;51.466;7.260;2022-10-26T09:17:33;3.63;;;1.38;;
75494;SDS011;64072;51.466;7.260;2022-10-26T09:25:34;3.15;;;1.10;;
75494;SDS011;64072;51.466;7.260;2022-10-26T09:28:03;2.92;;;1.20;;
75494;SDS011;64072;51.466;7.260;2022-10-26T09:30:32;3.00;;;1.27;;
75494;SDS011;64072;51.466;7.260;2022-10-26T09:33:15;2.78;;;1.13;;
75494;SDS011;64072;51.466;7.260;2022-10-26T09:35:48;3.08;;;1.20;;
75494;SDS011;64072;51.466;7.260;2022-10-26T09:41:18;2.70;;;1.13;;
75494;SDS011;64072;51.466;7.260;2022-10-26T09:46:27;3.58;;;1.35;;
75494;SDS011;64072;51.466;7.260;2022-10-26T09:49:17;4.70;;;1.42;;
75494;SDS011;64072;51.466;7.260;2022-10-26T09:51:45;1.92;;;0.90;;
75494;SDS011;64072;51.466;7.260;2022-10-26T09:54:16;4.45;;;1.23;;
75494;SDS011;64072;51.466;7.260;2022-10-26T09:56:45;3.17;;;1.30;;
75494;SDS011;64072;51.466;7.260;2022-10-26T09:59:15;2.92;;;1.23;;
75494;SDS011;64072;51.466;7.260;2022-10-26T10:01:44;2.85;;;1.20;;
75494;SDS011;64072;51.466;7.260;2022-10-26T10:06:38;3.15;;;1.30;;
75494;SDS011;64072;51.466;7.260;2022-10-26T10:09:11;3.03;;;1.35;;
75494;SDS011;64072;51.466;7.260;2022-10-26T10:11:43;2.38;;;1.00;;
75494;SDS011;64072;51.466;7.260;2022-10-26T10:14:18;3.75;;;1.10;;
75494;SDS011;64072;51.466;7.260;2022-10-26T10:19:22;3.13;;;1.23;;
75494;SDS011;64072;51.466;7.260;2022-10-26T10:21:49;2.67;;;1.20;;
75494;SDS011;64072;51.466;7.260;2022-10-26T10:24:21;3.33;;;1.33;;
75494;SDS011;64072;51.466;7.260;2022-10-26T10:29:40;4.90;;;1.30;;
75494;SDS011;64072;51.466;7.260;2022-10-26T10:32:13;3.42;;;1.30;;
75494;SDS011;64072;51.466;7.260;2022-10-26T10:34:46;2.75;;;1.02;;
75494;SDS011;64072;51.466;7.260;2022-10-26T10:40:16;3.80;;;1.30;;
75494;SDS011;64072;51.466;7.260;2022-10-26T10:42:47;2.97;;;1.20;;
75494;SDS011;64072;51.466;7.260;2022-10-26T10:45:26;3.15;;;1.27;;
75494;SDS011;64072;51.466;7.260;2022-10-26T10:48:02;3.40;;;1.15;;
75494;SDS011;64072;51.466;7.260;2022-10-26T10:50:36;3.35;;;1.20;;
75494;SDS011;64072;51.466;7.260;2022-10-26T10:53:15;3.33;;;1.20;;
75494;SDS011;64072;51.466;7.260;2022-10-26T10:56:07;3.92;;;1.20;;
75494;SDS011;64072;51.466;7.260;2022-10-26T10:58:50;3.00;;;1.23;;
75494;SDS011;64072;51.466;7.260;2022-10-26T11:01:48;4.68;;;1.70;;
75494;SDS011;64072;51.466;7.260;2022-10-26T11:07:25;3.85;;;1.20;;
75494;SDS011;64072;51.466;7.260;2022-10-26T11:09:52;5.13;;;1.70;;
75494;SDS011;64072;51.466;7.260;2022-10-26T11:12:32;4.90;;;1.63;;
75494;SDS011;64072;51.466;7.260;2022-10-26T11:15:18;4.40;;;1.40;;
75494;SDS011;64072;51.466;7.260;2022-10-26T11:18:05;5.13;;;1.60;;
75494;SDS011;64072;51.466;7.260;2022-10-26T11:20:37;3.53;;;1.40;;
75494;SDS011;64072;51.466;7.260;2022-10-26T11:23:11;4.00;;;1.55;;
75494;SDS011;64072;51.466;7.260;2022-10-26T11:29:03;4.85;;;1.60;;
75494;SDS011;64072;51.466;7.260;2022-10-26T11:31:36;4.00;;;1.33;;
75494;SDS011;64072;51.466;7.260;2022-10-26T11:37:05;4.18;;;1.50;;
75494;SDS011;64072;51.466;7.260;2022-10-26T11:39:45;3.45;;;1.38;;
75494;SDS011;64072;51.466;7.260;2022-10-26T11:42:27;4.07;;;1.65;;
75494;SDS011;64072;51.466;7.260;2022-10-26T11:45:43;3.78;;;1.55;;
75494;SDS011;64072;51.466;7.260;2022-10-26T11:47:56;4.53;;;1.60;;
75494;SDS011;64072;51.466;7.260;2022-10-26T11:50:33;5.40;;;1.90;;
75494;SDS011;64072;51.466;7.260;2022-10-26T11:53:14;5.22;;;1.70;;
75494;SDS011;64072;51.466;7.260;2022-10-26T11:55:42;4.72;;;1.70;;
75494;SDS011;64072;51.466;7.260;2022-10-26T11:58:18;8.45;;;1.50;;
75494;SDS011;64072;51.466;7.260;2022-10-26T12:00:59;4.65;;;1.50;;
75494;SDS011;64072;51.466;7.260;2022-10-26T12:03:30;4.85;;;1.85;;
75494;SDS011;64072;51.466;7.260;2022-10-26T12:05:59;4.90;;;1.40;;
75494;SDS011;64072;51.466;7.260;2022-10-26T12:08:29;5.10;;;1.73;;
75494;SDS011;64072;51.466;7.260;2022-10-26T12:16:12;4.10;;;1.40;;
75494;SDS011;64072;51.466;7.260;2022-10-26T12:18:50;4.22;;;1.48;;
75494;SDS011;64072;51.466;7.260;2022-10-26T12:21:26;4.45;;;1.73;;
75494;SDS011;64072;51.466;7.260;2022-10-26T12:23:58;3.53;;;1.40;;
75494;SDS011;64072;51.466;7.260;2022-10-26T12:27:02;4.68;;;1.70;;
75494;SDS011;64072;51.466;7.260;2022-10-26T12:29:33;4.10;;;1.70;;
75494;SDS011;64072;51.466;7.260;2022-10-26T12:34:57;3.33;;;1.40;;
75494;SDS011;64072;51.466;7.260;2022-10-26T12:37:29;3.90;;;1.50;;
75494;SDS011;64072;51.466;7.260;2022-10-26T12:40:43;4.30;;;1.58;;
75494;SDS011;64072;51.466;7.260;2022-10-26T12:45:40;4.47;;;1.50;;
75494;SDS011;64072;51.466;7.260;2022-10-26T12:48:22;3.65;;;1.40;;
75494;SDS011;64072;51.466;7.260;2022-10-26T12:50:50;3.75;;;1.30;;
75494;SDS011;64072;51.466;7.260;2022-10-26T12:53:19;4.10;;;1.40;;
75494;SDS011;64072;51.466;7.260;2022-10-26T12:58:23;3.63;;;1.30;;
75494;SDS011;64072;51.466;7.260;2022-10-26T13:09:06;6.50;;;1.50;;
75494;SDS011;64072;51.466;7.260;2022-10-26T13:11:37;4.00;;;1.50;;
75494;SDS011;64072;51.466;7.260;2022-10-26T13:14:20;2.53;;;1.10;;
75494;SDS011;64072;51.466;7.260;2022-10-26T13:16:57;3.20;;;1.30;;
75494;SDS011;64072;51.466;7.260;2022-10-26T13:19:26;2.95;;;1.30;;
75494;SDS011;64072;51.466;7.260;2022-10-26T13:21:58;3.75;;;1.40;;
75494;SDS011;64072;51.466;7.260;2022-10-26T13:24:26;4.20;;;1.45;;
75494;SDS011;64072;51.466;7.260;2022-10-26T13:29:29;3.90;;;1.35;;
75494;SDS011;64072;51.466;7.260;2022-10-26T13:31:55;4.93;;;1.63;;
75494;SDS011;64072;51.466;7.260;2022-10-26T13:39:47;5.45;;;1.70;;
75494;SDS011;64072;51.466;7.260;2022-10-26T13:45:40;4.82;;;1.65;;
75494;SDS011;64072;51.466;7.260;2022-10-26T13:48:11;3.67;;;1.30;;
75494;SDS011;64072;51.466;7.260;2022-10-26T13:51:02;4.97;;;1.45;;
75494;SDS011;64072;51.466;7.260;2022-10-26T13:56:39;4.30;;;1.40;;
75494;SDS011;64072;51.466;7.260;2022-10-26T13:59:12;4.47;;;1.40;;
75494;SDS011;64072;51.466;7.260;2022-10-26T14:01:38;3.90;;;1.20;;
75494;SDS011;64072;51.466;7.260;2022-10-26T14:04:13;4.93;;;1.40;;
75494;SDS011;64072;51.466;7.260;2022-10-26T14:06:50;3.67;;;1.50;;
75494;SDS011;64072;51.466;7.260;2022-10-26T14:09:16;4.50;;;1.52;;
75494;SDS011;64072;51.466;7.260;2022-10-26T14:11:47;5.35;;;1.40;;
75494;SDS011;64072;51.466;7.260;2022-10-26T14:14:16;4.80;;;1.40;;
75494;SDS011;64072;51.466;7.260;2022-10-26T14:16:45;4.30;;;1.23;;
75494;SDS011;64072;51.466;7.260;2022-10-26T14:19:19;5.47;;;1.40;;
75494;SDS011;64072;51.466;7.260;2022-10-26T14:21:52;5.30;;;1.58;;
75494;SDS011;64072;51.466;7.260;2022-10-26T14:24:22;5.55;;;1.50;;
75494;SDS011;64072;51.466;7.260;2022-10-26T14:26:52;4.82;;;1.33;;
75494;SDS011;64072;51.466;7.260;2022-10-26T14:29:18;4.22;;;1.20;;
75494;SDS011;64072;51.466;7.260;2022-10-26T14:31:46;4.38;;;1.35;;
75494;SDS011;64072;51.466;7.260;2022-10-26T14:34:13;3.95;;;1.33;;
75494;SDS011;64072;51.466;7.260;2022-10-26T14:36:44;4.53;;;1.48;;
75494;SDS011;64072;51.466;7.260;2022-10-26T14:41:54;4.40;;;1.45;;
75494;SDS011;64072;51.466;7.260;2022-10-26T14:44:22;3.47;;;1.30;;
75494;SDS011;64072;51.466;7.260;2022-10-26T14:46:48;4.50;;;1.20;;
75494;SDS011;64072;51.466;7.260;2022-10-26T14:49:16;3.80;;;1.40;;
75494;SDS011;64072;51.466;7.260;2022-10-26T14:51:56;3.95;;;1.45;;
75494;SDS011;64072;51.466;7.260;2022-10-26T14:54:25;4.55;;;1.58;;
75494;SDS011;64072;51.466;7.260;2022-10-26T14:56:52;4.82;;;1.30;;
75494;SDS011;64072;51.466;7.260;2022-10-26T15:02:03;4.07;;;1.30;;
75494;SDS011;64072;51.466;7.260;2022-10-26T15:04:56;3.53;;;1.40;;
75494;SDS011;64072;51.466;7.260;2022-10-26T15:07:32;4.22;;;1.13;;
75494;SDS011;64072;51.466;7.260;2022-10-26T15:09:59;5.32;;;1.35;;
75494;SDS011;64072;51.466;7.260;2022-10-26T15:12:32;3.90;;;1.20;;
75494;SDS011;64072;51.466;7.260;2022-10-26T15:17:41;3.05;;;1.20;;
75494;SDS011;64072;51.466;7.260;2022-10-26T15:20:15;4.10;;;1.27;;
75494;SDS011;64072;51.466;7.260;2022-10-26T15:23:18;3.55;;;1.30;;
75494;SDS011;64072;51.466;7.260;2022-10-26T15:25:38;3.55;;;1.30;;
75494;SDS011;64072;51.466;7.260;2022-10-26T15:28:11;3.25;;;1.20;;
75494;SDS011;64072;51.466;7.260;2022-10-26T15:33:31;2.65;;;1.17;;
75494;SDS011;64072;51.466;7.260;2022-10-26T15:38:32;3.83;;;1.20;;
75494;SDS011;64072;51.466;7.260;2022-10-26T15:40:58;2.67;;;1.10;;
75494;SDS011;64072;51.466;7.260;2022-10-26T15:43:24;3.65;;;1.20;;
75494;SDS011;64072;51.466;7.260;2022-10-26T15:45:50;2.30;;;1.00;;
75494;SDS011;64072;51.466;7.260;2022-10-26T15:48:23;4.07;;;1.10;;
75494;SDS011;64072;51.466;7.260;2022-10-26T15:50:52;2.20;;;0.95;;
75494;SDS011;64072;51.466;7.260;2022-10-26T15:55:47;3.28;;;1.10;;
75494;SDS011;64072;51.466;7.260;2022-10-26T15:58:15;3.25;;;1.15;;
75494;SDS011;64072;51.466;7.260;2022-10-26T16:00:41;3.80;;;1.27;;
75494;SDS011;64072;51.466;7.260;2022-10-26T16:03:08;3.20;;;1.10;;
75494;SDS011;64072;51.466;7.260;2022-10-26T16:05:37;3.20;;;1.27;;
75494;SDS011;64072;51.466;7.260;2022-10-26T16:08:03;3.88;;;1.15;;
75494;SDS011;64072;51.466;7.260;2022-10-26T16:10:29;3.55;;;1.20;;
75494;SDS011;64072;51.466;7.260;2022-10-26T16:12:54;3.40;;;1.30;;
75494;SDS011;64072;51.466;7.260;2022-10-26T16:15:23;3.42;;;1.15;;
75494;SDS011;64072;51.466;7.260;2022-10-26T16:17:49;3.55;;;1.30;;
75494;SDS011;64072;51.466;7.260;2022-10-26T16:20:22;3.38;;;1.27;;
75494;SDS011;64072;51.466;7.260;2022-10-26T16:22:51;3.65;;;1.20;;
75494;SDS011;64072;51.466;7.260;2022-10-26T16:25:18;4.40;;;1.33;;
75494;SDS011;64072;51.466;7.260;2022-10-26T16:27:46;3.38;;;1.20;;
75494;SDS011;64072;51.466;7.260;2022-10-26T16:30:12;3.40;;;1.20;;
75494;SDS011;64072;51.466;7.260;2022-10-26T16:32:38;3.17;;;1.30;;
75494;SDS011;64072;51.466;7.260;2022-10-26T16:35:04;3.15;;;1.20;;
75494;SDS011;64072;51.466;7.260;2022-10-26T16:37:30;4.00;;;1.40;;
75494;SDS011;64072;51.466;7.260;2022-10-26T16:39:56;3.85;;;1.23;;
75494;SDS011;64072;51.466;7.260;2022-10-26T16:42:22;3.15;;;1.30;;
75494;SDS011;64072;51.466;7.260;2022-10-26T16:44:48;3.70;;;1.20;;
75494;SDS011;64072;51.466;7.260;2022-10-26T16:47:13;3.33;;;1.25;;
75494;SDS011;64072;51.466;7.260;2022-10-26T16:49:39;2.90;;;1.20;;
75494;SDS011;64072;51.466;7.260;2022-10-26T16:52:07;4.28;;;1.27;;
75494;SDS011;64072;51.466;7.260;2022-10-26T16:54:33;3.45;;;1.40;;
75494;SDS011;64072;51.466;7.260;2022-10-26T16:56:59;3.75;;;1.40;;
75494;SDS011;64072;51.466;7.260;2022-10-26T16:59:24;4.05;;;1.58;;
75494;SDS011;64072;51.466;7.260;2022-10-26T17:01:50;3.97;;;1.23;;
75494;SDS011;64072;51.466;7.260;2022-10-26T17:04:15;3.60;;;1.42;;
75494;SDS011;64072;51.466;7.260;2022-10-26T17:06:41;4.43;;;1.48;;
75494;SDS011;64072;51.466;7.260;2022-10-26T17:09:06;4.22;;;1.30;;
75494;SDS011;64072;51.466;7.260;2022-10-26T17:11:32;3.47;;;1.30;;
75494;SDS011;64072;51.466;7.260;2022-10-26T17:13:57;3.50;;;1.38;;